Portada
METAR-TAF:

METAR-TAF

Aeroports :

Tupelo Regional Airport (C.D. Lemons Field)

Tupelo, Mississipí, Estats Units d'Amèrica

latitud: 34-16-05N, longitud: 088-46-12W, altitud: 106 m

Observació

L'informe es va fer fa 10 minuts, a les 23:53 UTC
Vent 4 kt del Nord/Nord-Oest
Temperatura 27°C
Humitat 54%
Pressió 1017 hPa
Visibilitat: 16.1 km
Cel clar

METAR: KTUP 292353Z 33004KT 10SM CLR 27/17 A3002 RMK AO2 SLP162 T02720172 10289 20272 51001 $

Hora: 19:03 (00:03 UTC)

Pronòstic

L'informe es va fer fa 35 minuts, a les 23:28 UTC
Pronòstic vàlid del 30 a les 00 UTC al 30 a les 24 UTC
Vent 4 kt del Nord-Oest
Visibilitat: 10 km
Cel clar
A partir de les 30 a les 0300 UTC
Vent 3 kt del Nord
Visibilitat: 10 km
Cel clar
A partir de les 30 a les 1400 UTC
Vent 10 kt del Nord/Nord-Est
Visibilitat: 10 km
Cel clar

TAF: KTUP 292328Z 3000/3024 32004KT P6SM SKC FM300300 01003KT P6SM SKC FM301400 03010KT P6SM SKC

Observacions i pronòstics meteorològics de més de 4000 aeroports (METAR i TAF).

Les estacions disponibles són els punts grocs i vermells al mapa.

Posi el ratolí al punt desitjat per veure el nom de l'estació.

Feu clic per veure les observacions i els pronòstics meteorològics.

Per canviar el mapa: feu clic els botons verds amb una creu de color negre per apropar; al botó verd amb un guió per allunyar la imatge; o en les fletxes verdes per a mapes adjacents.


METAR-TAF: